Time;durP1;ratioP1;P1;durP2;ratioP2;P2;SDS_P1;SDS_P2;PMS_P1;PMS_P2;Temp;Humidity;BMP_temperature;BMP_pressure;BME280_temperature;BME280_humidity;BME280_pressure;Samples;Min_cycle;Max_cycle;Signal;HPM_P1;HPM_P2
2024/03/12 00:01:26;;;;;;;6.35;3.28;;;;;;;10.10;100.00;92533.41;5105989;28;20043;-73
2024/03/12 00:03:54;;;;;;;2.70;1.17;;;;;;;10.09;100.00;92516.47;5109612;28;20055;-73
2024/03/12 00:06:22;;;;;;;4.72;2.80;;;;;;;9.94;100.00;92501.50;5109280;28;20079;-73
2024/03/12 00:08:49;;;;;;;4.20;2.53;;;;;;;9.78;100.00;92536.31;5109569;28;20050;-73
2024/03/12 00:11:16;;;;;;;2.60;1.23;;;;;;;9.80;100.00;92577.91;5103037;28;20048;-73
2024/03/12 00:13:43;;;;;;;4.68;1.45;;;;;;;9.71;100.00;92566.38;5105092;28;20051;-73
2024/03/12 00:16:11;;;;;;;6.07;1.02;;;;;;;9.75;100.00;92537.53;5103000;28;20043;-73
2024/03/12 00:18:40;;;;;;;3.75;1.10;;;;;;;9.15;100.00;92513.53;5106541;28;20096;-73
2024/03/12 00:21:07;;;;;;;2.95;1.60;;;;;;;8.54;100.00;92468.19;5109290;28;20120;-73
2024/03/12 00:23:34;;;;;;;5.20;2.30;;;;;;;8.69;100.00;92449.88;5109813;28;20054;-73
2024/03/12 00:26:02;;;;;;;8.40;4.65;;;;;;;9.04;100.00;92476.63;5102525;28;20051;-73
2024/03/12 00:28:31;;;;;;;3.53;1.30;;;;;;;9.15;100.00;92480.22;5102501;28;20454;-73
2024/03/12 00:30:59;;;;;;;24.52;14.07;;;;;;;9.30;100.00;92507.22;5108340;28;20043;-73
2024/03/12 00:33:28;;;;;;;16.73;9.02;;;;;;;9.42;100.00;92505.47;5113559;28;20059;-73
2024/03/12 00:35:57;;;;;;;16.42;9.60;;;;;;;9.52;100.00;92517.75;5110660;28;20519;-74
2024/03/12 00:38:28;;;;;;;5.78;3.30;;;;;;;9.41;100.00;92509.03;5105916;28;20824;-74
2024/03/12 00:40:56;;;;;;;4.93;2.10;;;;;;;9.48;100.00;92485.84;5109913;28;20079;-74
2024/03/12 00:43:23;;;;;;;7.00;3.50;;;;;;;9.56;100.00;92457.34;5108887;28;20040;-73
2024/03/12 00:45:50;;;;;;;7.68;3.83;;;;;;;9.52;100.00;92440.03;5103539;28;20480;-74
2024/03/12 00:48:19;;;;;;;3.10;1.35;;;;;;;9.47;100.00;92438.16;5104810;28;20852;-73
2024/03/12 00:50:48;;;;;;;6.30;3.83;;;;;;;9.56;100.00;92430.91;5109213;28;20047;-73
2024/03/12 00:53:15;;;;;;;7.85;3.85;;;;;;;9.56;100.00;92431.69;5108508;28;20131;-73
2024/03/12 00:55:47;;;;;;;4.95;2.13;;;;;;;9.55;100.00;92407.06;5101965;28;20122;-73
2024/03/12 00:58:15;;;;;;;3.85;2.67;;;;;;;9.49;100.00;92410.50;5106317;28;20047;-74
2024/03/12 01:00:41;;;;;;;9.48;5.18;;;;;;;9.56;100.00;92415.53;5103633;28;20054;-74
2024/03/12 01:03:09;;;;;;;1.98;0.80;;;;;;;9.60;100.00;92421.78;5105256;28;20039;-74
2024/03/12 01:05:37;;;;;;;3.15;1.25;;;;;;;9.55;100.00;92419.09;5105558;28;20421;-74
2024/03/12 01:08:07;;;;;;;2.90;1.33;;;;;;;9.46;100.00;92416.09;5107942;28;20054;-74
2024/03/12 01:10:35;;;;;;;1.00;0.50;;;;;;;9.53;100.00;92424.44;5107886;28;20046;-74
2024/03/12 01:13:05;;;;;;;1.70;0.80;;;;;;;9.48;100.00;92394.34;5108115;28;20130;-74
2024/03/12 01:15:32;;;;;;;1.67;0.75;;;;;;;9.43;100.00;92381.44;5105789;28;20048;-74
2024/03/12 01:18:00;;;;;;;5.22;2.72;;;;;;;9.36;100.00;92373.84;5107206;28;20086;-74
2024/03/12 01:20:27;;;;;;;3.92;2.13;;;;;;;9.35;100.00;92371.50;5106513;28;20045;-75
2024/03/12 01:22:55;;;;;;;2.95;1.50;;;;;;;9.33;100.00;92364.03;5099832;28;20048;-75
2024/03/12 01:25:24;;;;;;;3.65;2.20;;;;;;;9.36;100.00;92378.97;5104586;28;20711;-74
2024/03/12 01:27:55;;;;;;;2.13;0.90;;;;;;;9.35;100.00;92381.75;5107790;28;20043;-75
2024/03/12 01:30:26;;;;;;;3.83;2.20;;;;;;;9.36;100.00;92380.75;5103390;28;20047;-75
2024/03/12 01:32:54;;;;;;;3.00;1.73;;;;;;;9.32;100.00;92369.38;5103592;28;20059;-75
2024/03/12 01:35:24;;;;;;;3.30;1.67;;;;;;;9.16;100.00;92338.28;5106716;28;20048;-75
2024/03/12 01:37:51;;;;;;;2.72;1.73;;;;;;;9.18;100.00;92344.00;5104385;28;20082;-75
2024/03/12 01:40:21;;;;;;;3.80;2.53;;;;;;;9.40;100.00;92371.59;5107160;28;20497;-75
2024/03/12 01:42:52;;;;;;;8.63;4.90;;;;;;;9.47;100.00;92374.84;5105196;28;20088;-75
2024/03/12 01:45:21;;;;;;;2.63;1.20;;;;;;;9.27;100.00;92335.97;5103160;28;20044;-75
2024/03/12 01:47:49;;;;;;;3.17;1.85;;;;;;;9.48;100.00;92367.94;5105790;28;20548;-75
2024/03/12 01:50:18;;;;;;;2.85;1.77;;;;;;;9.42;100.00;92361.13;5107479;28;20645;-75
2024/03/12 01:52:46;;;;;;;5.78;4.10;;;;;;;9.44;100.00;92366.84;5104948;28;20043;-74
2024/03/12 01:55:14;;;;;;;3.40;1.92;;;;;;;9.30;100.00;92364.47;5103647;28;20546;-74
2024/03/12 01:57:42;;;;;;;2.53;1.30;;;;;;;9.26;100.00;92360.03;5108031;28;20085;-75
2024/03/12 02:00:13;;;;;;;4.10;2.95;;;;;;;9.37;100.00;92364.38;5103956;28;20047;-75
2024/03/12 02:02:40;;;;;;;3.92;1.95;;;;;;;9.39;100.00;92377.75;5103175;28;20134;-75
2024/03/12 02:05:10;;;;;;;5.68;2.83;;;;;;;9.40;100.00;92358.03;5099526;28;20051;-74
2024/03/12 02:07:38;;;;;;;13.52;7.03;;;;;;;9.38;100.00;92350.56;5107181;28;20052;-74
2024/03/12 02:10:06;;;;;;;11.73;6.55;;;;;;;9.48;100.00;92355.91;5107201;28;20588;-74
2024/03/12 02:12:33;;;;;;;9.32;5.50;;;;;;;9.48;100.00;92347.41;5105944;28;20056;-75
2024/03/12 02:15:03;;;;;;;4.03;2.10;;;;;;;9.43;100.00;92339.63;5106844;28;20047;-76
2024/03/12 02:17:32;;;;;;;2.78;1.50;;;;;;;9.39;100.00;92329.03;5106225;28;20128;-76
2024/03/12 02:20:00;;;;;;;3.42;1.25;;;;;;;9.45;100.00;92325.56;5102887;28;20039;-76
2024/03/12 02:22:27;;;;;;;7.72;2.30;;;;;;;8.78;100.00;92329.22;5101587;28;20511;-75
2024/03/12 02:24:55;;;;;;;1.75;0.70;;;;;;;8.20;100.00;92328.81;5101599;28;20404;-75
2024/03/12 02:27:22;;;;;;;10.18;1.88;;;;;;;7.92;100.00;92330.13;5106881;28;20052;-75
2024/03/12 02:29:49;;;;;;;15.40;4.28;;;;;;;7.65;100.00;92322.75;5106695;28;20123;-74
2024/03/12 02:32:17;;;;;;;17.30;4.22;;;;;;;7.66;100.00;92321.75;5104078;28;20047;-74
2024/03/12 02:34:44;;;;;;;11.52;3.08;;;;;;;7.99;100.00;92323.94;5102307;28;20052;-74
2024/03/12 02:37:11;;;;;;;13.27;4.80;;;;;;;7.88;100.00;92283.75;5101817;28;20056;-75
2024/03/12 02:39:38;;;;;;;7.65;2.88;;;;;;;7.99;100.00;92329.06;5106832;28;20530;-75
2024/03/12 02:42:08;;;;;;;9.05;3.45;;;;;;;7.95;100.00;92335.59;5105871;28;20052;-75
2024/03/12 02:44:35;;;;;;;8.73;4.10;;;;;;;7.69;100.00;92344.34;5106037;28;20458;-75
2024/03/12 02:47:03;;;;;;;9.50;3.47;;;;;;;7.70;100.00;92341.59;5106952;28;20146;-75
2024/03/12 02:49:30;;;;;;;10.10;3.50;;;;;;;7.30;100.00;92345.31;5104689;28;20055;-75
2024/03/12 02:51:57;;;;;;;8.68;2.97;;;;;;;7.59;100.00;92340.50;5106082;28;20047;-75
2024/03/12 02:54:26;;;;;;;9.25;3.70;;;;;;;7.77;100.00;92341.50;5107144;28;20404;-75
2024/03/12 02:56:53;;;;;;;8.40;2.95;;;;;;;7.83;100.00;92342.44;5103903;28;20051;-75
2024/03/12 02:59:22;;;;;;;6.75;2.97;;;;;;;7.49;100.00;92350.44;5106139;28;20056;-75
2024/03/12 03:01:49;;;;;;;6.30;3.28;;;;;;;7.69;100.00;92367.34;5105661;28;20047;-75
2024/03/12 03:04:16;;;;;;;8.45;3.33;;;;;;;7.64;100.00;92344.19;5103653;28;20048;-74
2024/03/12 03:06:44;;;;;;;7.82;2.50;;;;;;;7.83;100.00;92352.66;5104075;28;20134;-74
2024/03/12 03:09:12;;;;;;;6.80;2.85;;;;;;;7.85;100.00;92345.53;5104182;28;20512;-74
2024/03/12 03:11:39;;;;;;;6.95;2.80;;;;;;;7.96;100.00;92347.38;5102862;28;20036;-74
2024/03/12 03:14:06;;;;;;;7.82;3.15;;;;;;;8.11;100.00;92359.78;5106458;28;20122;-75
2024/03/12 03:16:34;;;;;;;6.47;2.67;;;;;;;8.16;100.00;92364.28;5106290;28;20430;-76
2024/03/12 03:19:01;;;;;;;7.85;3.33;;;;;;;8.20;100.00;92364.63;5103348;28;20044;-75
2024/03/12 03:21:29;;;;;;;8.20;3.13;;;;;;;8.25;100.00;92369.88;5106142;28;20390;-74
2024/03/12 03:23:57;;;;;;;6.85;3.17;;;;;;;8.31;100.00;92363.91;5102942;28;20440;-75
2024/03/12 03:26:24;;;;;;;8.73;3.28;;;;;;;8.34;100.00;92366.00;5107069;28;20153;-75
2024/03/12 03:28:51;;;;;;;9.10;2.92;;;;;;;8.40;100.00;92366.94;5105265;28;20064;-75
2024/03/12 03:31:18;;;;;;;8.52;2.72;;;;;;;8.42;100.00;92375.16;5101692;28;20048;-75
2024/03/12 03:33:47;;;;;;;6.70;3.05;;;;;;;8.42;100.00;92373.41;5104369;28;20054;-75
2024/03/12 03:36:14;;;;;;;8.75;2.50;;;;;;;8.39;100.00;92381.50;5105219;28;20047;-74
2024/03/12 03:38:41;;;;;;;5.93;2.30;;;;;;;8.38;100.00;92379.19;5105361;28;20515;-74
2024/03/12 03:41:09;;;;;;;7.68;2.55;;;;;;;8.38;100.00;92374.81;5110763;28;20092;-74
2024/03/12 03:43:36;;;;;;;4.45;2.03;;;;;;;8.38;100.00;92374.81;5106114;28;20059;-74
2024/03/12 03:46:04;;;;;;;6.65;1.83;;;;;;;8.35;100.00;92382.16;5110213;28;20049;-74
2024/03/12 03:48:31;;;;;;;6.32;2.25;;;;;;;8.32;100.00;92385.16;5104211;28;20079;-74
2024/03/12 03:50:59;;;;;;;5.00;1.80;;;;;;;8.25;100.00;92383.44;5110090;28;20043;-74
2024/03/12 03:53:27;;;;;;;4.03;1.83;;;;;;;8.19;100.00;92386.84;5108733;28;20130;-75
2024/03/12 03:55:54;;;;;;;5.38;2.40;;;;;;;8.16;100.00;92382.94;5109582;28;20055;-75
2024/03/12 03:58:22;;;;;;;6.18;2.50;;;;;;;8.14;100.00;92379.84;5105871;28;20661;-75
2024/03/12 04:00:50;;;;;;;9.65;2.75;;;;;;;8.12;100.00;92375.94;5110401;28;20047;-74
2024/03/12 04:03:17;;;;;;;5.25;2.30;;;;;;;8.08;100.00;92378.13;5106022;28;20162;-74
2024/03/12 04:05:44;;;;;;;6.88;3.38;;;;;;;8.06;100.00;92374.22;5107114;28;20496;-74
2024/03/12 04:08:12;;;;;;;6.10;3.47;;;;;;;7.99;100.00;92367.41;5102628;28;20497;-74
2024/03/12 04:10:42;;;;;;;10.10;3.80;;;;;;;8.02;100.00;92374.66;5108388;28;20063;-74
2024/03/12 04:13:09;;;;;;;9.35;3.95;;;;;;;7.98;100.00;92372.75;5107302;28;20127;-74
2024/03/12 04:15:36;;;;;;;8.52;4.20;;;;;;;7.99;100.00;92374.31;5108374;28;20435;-74
2024/03/12 04:18:04;;;;;;;9.25;4.60;;;;;;;7.99;100.00;92369.97;5107000;28;20140;-74
2024/03/12 04:20:31;;;;;;;11.57;5.45;;;;;;;7.93;100.00;92370.84;5107390;28;20050;-74
2024/03/12 04:22:58;;;;;;;10.95;5.60;;;;;;;7.88;100.00;92371.47;5105841;28;20123;-75
2024/03/12 04:25:28;;;;;;;11.40;5.85;;;;;;;7.81;100.00;92370.75;5107818;28;20058;-74
2024/03/12 04:27:55;;;;;;;11.10;5.10;;;;;;;7.76;100.00;92370.59;5107979;28;20047;-74
2024/03/12 04:30:23;;;;;;;9.43;4.78;;;;;;;7.80;100.00;92376.06;5107724;28;20127;-74
2024/03/12 04:32:50;;;;;;;10.52;5.43;;;;;;;7.77;100.00;92367.06;5106996;28;20046;-74
2024/03/12 04:35:17;;;;;;;11.18;5.05;;;;;;;7.78;100.00;92365.28;5101384;28;20051;-74
2024/03/12 04:37:44;;;;;;;8.65;4.50;;;;;;;7.80;100.00;92370.97;5109819;28;20047;-75
2024/03/12 04:40:11;;;;;;;9.43;4.70;;;;;;;7.80;100.00;92371.75;5104168;28;20066;-76
2024/03/12 04:42:45;;;;;;;10.38;4.32;;;;;;;7.75;100.00;92377.50;5105937;28;20509;-75
2024/03/12 04:45:12;;;;;;;8.65;3.75;;;;;;;7.70;100.00;92372.25;5107129;28;20462;-75
2024/03/12 04:47:40;;;;;;;8.60;4.35;;;;;;;7.57;100.00;92357.03;5106781;28;20052;-74
2024/03/12 04:50:09;;;;;;;9.68;4.65;;;;;;;7.65;100.00;92372.09;5108796;28;20069;-74
2024/03/12 04:52:36;;;;;;;9.35;3.75;;;;;;;7.60;100.00;92370.16;5104848;28;20047;-74
2024/03/12 04:55:04;;;;;;;12.63;6.63;;;;;;;7.60;100.00;92370.16;5108397;28;20048;-74
2024/03/12 04:57:31;;;;;;;12.70;6.90;;;;;;;7.59;100.00;92373.72;5105461;28;20139;-75
2024/03/12 05:00:00;;;;;;;9.07;5.68;;;;;;;7.59;100.00;92367.84;5106040;28;20051;-75
2024/03/12 05:02:27;;;;;;;13.20;6.97;;;;;;;7.52;100.00;92367.91;5105545;28;20051;-75
2024/03/12 05:04:54;;;;;;;15.00;7.97;;;;;;;7.46;100.00;92366.97;5104326;28;20044;-75
2024/03/12 05:07:21;;;;;;;14.18;7.30;;;;;;;7.33;100.00;92349.97;5108191;28;20580;-74
2024/03/12 05:09:48;;;;;;;18.65;11.20;;;;;;;7.55;100.00;92369.25;5108416;28;20086;-75
2024/03/12 05:12:15;;;;;;;16.83;10.43;;;;;;;7.48;100.00;92361.66;5107652;28;20078;-75
2024/03/12 05:14:42;;;;;;;15.30;8.85;;;;;;;7.48;100.00;92367.56;5103952;28;20659;-74
2024/03/12 05:17:10;;;;;;;21.80;10.73;;;;;;;7.50;100.00;92367.31;5106698;28;20047;-74
2024/03/12 05:19:37;;;;;;;16.48;10.77;;;;;;;7.49;100.00;92370.88;5098504;28;20051;-74
2024/03/12 05:22:04;;;;;;;16.85;10.18;;;;;;;7.48;100.00;92367.56;5107672;28;20156;-75
2024/03/12 05:24:33;;;;;;;18.30;10.25;;;;;;;7.51;100.00;92368.09;5104684;28;20512;-75
2024/03/12 05:27:00;;;;;;;16.38;9.07;;;;;;;7.45;100.00;92362.09;5095276;28;20048;-75
2024/03/12 05:29:36;;;;;;;16.30;9.88;;;;;;;7.52;100.00;92370.47;5092134;28;20056;-74
2024/03/12 05:32:17;;;;;;;18.35;11.02;;;;;;;7.58;100.00;92373.94;5094547;28;20055;-74
2024/03/12 05:34:47;;;;;;;18.42;11.82;;;;;;;7.32;100.00;92340.75;5093266;28;20044;-74
2024/03/12 05:37:28;;;;;;;23.17;13.90;;;;;;;7.50;100.00;92364.75;5096901;28;20101;-74
2024/03/12 05:40:12;;;;;;;21.50;12.48;;;;;;;7.56;100.00;92374.16;5093438;28;20101;-74
2024/03/12 05:48:09;;;;;;;18.83;12.93;;;;;;;7.73;100.00;92374.38;5089239;28;20077;-74
2024/03/12 05:50:38;;;;;;;25.15;13.23;;;;;;;7.71;100.00;92375.56;5093113;28;20047;-75
2024/03/12 05:53:07;;;;;;;19.05;12.50;;;;;;;7.66;100.00;92363.44;5089853;28;20432;-74
2024/03/12 05:55:34;;;;;;;24.38;13.35;;;;;;;7.68;100.00;92369.13;5089703;28;20146;-74
2024/03/12 05:58:03;;;;;;;24.25;14.90;;;;;;;7.69;100.00;92362.25;5090892;28;20040;-74
2024/03/12 06:00:30;;;;;;;28.08;18.38;;;;;;;7.80;100.00;92384.53;5087899;28;20047;-74
2024/03/12 06:02:57;;;;;;;29.33;20.30;;;;;;;7.86;100.00;92380.34;5099538;28;20047;-75
2024/03/12 06:05:24;;;;;;;27.58;17.65;;;;;;;7.84;100.00;92378.00;5093624;28;20662;-74
2024/03/12 06:07:53;;;;;;;25.20;16.48;;;;;;;7.91;100.00;92369.47;5095392;28;20054;-75
2024/03/12 06:10:21;;;;;;;33.03;19.77;;;;;;;7.93;100.00;92380.28;5094197;28;20405;-74
2024/03/12 06:12:49;;;;;;;26.13;18.23;;;;;;;7.92;100.00;92373.59;5092603;28;20048;-74
2024/03/12 06:15:16;;;;;;;32.33;21.58;;;;;;;7.99;100.00;92376.84;5094630;28;20602;-74
2024/03/12 06:17:43;;;;;;;26.00;18.65;;;;;;;7.98;100.00;92376.09;5090731;28;20054;-74
2024/03/12 06:20:12;;;;;;;29.00;21.05;;;;;;;7.72;100.00;92365.16;5090727;28;20101;-74
2024/03/12 06:22:40;;;;;;;25.73;16.48;;;;;;;7.31;100.00;92380.06;5091666;28;20052;-74
2024/03/12 06:25:10;;;;;;;54.38;23.25;;;;;;;7.15;100.00;92389.06;5092100;28;20055;-74
2024/03/12 06:27:37;;;;;;;81.63;31.98;;;;;;;6.59;100.00;92386.28;5097848;28;20918;-74
2024/03/12 06:30:08;;;;;;;106.40;34.65;;;;;;;6.72;100.00;92387.19;5089459;28;20044;-74
2024/03/12 06:32:35;;;;;;;115.13;36.78;;;;;;;6.91;100.00;92393.91;5092161;28;20141;-74
2024/03/12 06:35:02;;;;;;;120.32;38.42;;;;;;;7.13;100.00;92397.91;5087713;28;20048;-74
2024/03/12 06:37:29;;;;;;;72.15;30.15;;;;;;;6.84;100.00;92372.00;5088311;28;20048;-74
2024/03/12 06:39:56;;;;;;;64.90;30.73;;;;;;;6.97;100.00;92389.75;5091948;28;20054;-74
2024/03/12 06:42:26;;;;;;;70.47;34.40;;;;;;;7.12;100.00;92379.25;5089315;28;20058;-73
2024/03/12 06:44:54;;;;;;;57.70;30.38;;;;;;;7.31;100.00;92385.19;5099604;28;20128;-73
2024/03/12 06:47:22;;;;;;;61.35;31.45;;;;;;;7.60;100.00;92407.75;5088905;28;20052;-73
2024/03/12 06:49:49;;;;;;;55.35;28.90;;;;;;;7.54;100.00;92394.03;5094427;28;20051;-73
2024/03/12 06:52:16;;;;;;;66.35;30.08;;;;;;;7.65;100.00;92407.09;5094480;28;20056;-73
2024/03/12 06:54:44;;;;;;;65.32;29.73;;;;;;;7.97;100.00;92412.88;5092126;28;20060;-73
2024/03/12 06:57:11;;;;;;;62.88;30.40;;;;;;;7.99;100.00;92403.22;5090854;28;20040;-74
2024/03/12 06:59:47;;;;;;;72.60;30.33;;;;;;;8.42;100.00;92405.88;5089102;28;20044;-74
2024/03/12 07:02:14;;;;;;;99.53;34.80;;;;;;;8.76;100.00;92408.03;5088875;28;20182;-74
2024/03/12 07:04:47;;;;;;;95.03;33.15;;;;;;;9.05;100.00;92409.03;5089376;28;20044;-74
2024/03/12 07:07:18;;;;;;;81.65;30.17;;;;;;;9.29;100.00;92416.75;5094111;28;20043;-74
2024/03/12 07:09:45;;;;;;;81.25;29.35;;;;;;;9.46;100.00;92423.78;5094759;28;20052;-74
2024/03/12 07:12:16;;;;;;;69.50;25.42;;;;;;;9.57;100.00;92409.41;5096477;28;20047;-74
2024/03/12 07:14:45;;;;;;;61.42;23.73;;;;;;;9.73;100.00;92413.84;5092502;28;20087;-74
2024/03/12 07:17:14;;;;;;;73.65;30.63;;;;;;;9.80;100.00;92411.19;5101980;28;20048;-74
2024/03/12 07:19:42;;;;;;;69.72;24.02;;;;;;;9.78;100.00;92417.53;5096630;28;20048;-74
2024/03/12 07:22:10;;;;;;;65.22;24.38;;;;;;;9.73;100.00;92413.09;5093247;28;20048;-74
2024/03/12 07:24:37;;;;;;;55.08;23.30;;;;;;;9.42;100.00;92412.41;5097100;28;20048;-74
2024/03/12 07:27:05;;;;;;;50.42;22.60;;;;;;;9.37;100.00;92413.06;5091370;28;20054;-74
2024/03/12 07:29:32;;;;;;;48.00;22.10;;;;;;;9.43;100.00;92396.00;5092067;28;20090;-74
2024/03/12 07:32:02;;;;;;;52.72;23.33;;;;;;;9.73;100.00;92411.28;5095226;28;20127;-74
2024/03/12 07:34:29;;;;;;;50.00;23.95;;;;;;;9.83;100.00;92407.38;5098626;28;20538;-75
2024/03/12 07:36:57;;;;;;;50.38;23.05;;;;;;;10.01;100.00;92409.03;5098066;28;20047;-75
2024/03/12 07:39:31;;;;;;;46.35;24.15;;;;;;;10.23;100.00;92405.88;5092379;28;20048;-74
2024/03/12 07:41:59;;;;;;;42.92;21.58;;;;;;;10.39;100.00;92419.78;5095645;28;20401;-74
2024/03/12 07:44:26;;;;;;;51.72;28.10;;;;;;;10.50;100.00;92419.00;5095493;28;20055;-74
2024/03/12 07:46:54;;;;;;;79.43;48.20;;;;;;;10.59;100.00;92410.94;5093944;28;20166;-75
2024/03/12 07:49:23;;;;;;;80.65;49.25;;;;;;;10.82;100.00;92420.31;5093638;28;20091;-75
2024/03/12 07:51:50;;;;;;;76.57;40.10;;;;;;;10.89;100.00;92420.97;5093466;28;20439;-75
2024/03/12 07:54:18;;;;;;;100.25;51.83;;;;;;;10.99;100.00;92419.56;5101561;28;20047;-74
2024/03/12 07:56:51;;;;;;;71.15;39.85;;;;;;;11.12;100.00;92414.16;5096081;28;20048;-74
2024/03/12 07:59:21;;;;;;;63.13;37.63;;;;;;;11.29;100.00;92416.72;5092682;28;20062;-74
2024/03/12 08:01:49;;;;;;;68.72;34.60;;;;;;;11.42;100.00;92396.84;5095314;28;20508;-75
2024/03/12 08:04:16;;;;;;;54.08;27.77;;;;;;;11.66;100.00;92415.47;5093615;28;20173;-75
2024/03/12 08:06:44;;;;;;;43.75;24.98;;;;;;;11.84;100.00;92401.56;5091034;28;20119;-74
2024/03/12 08:09:12;;;;;;;11.88;6.57;;;;;;;11.98;100.00;92404.59;5094624;28;20040;-74
2024/03/12 08:11:39;;;;;;;7.28;2.10;;;;;;;12.06;100.00;92408.56;5094416;28;20697;-74
2024/03/12 08:14:06;;;;;;;5.00;2.25;;;;;;;12.21;100.00;92404.63;5092452;28;20054;-74
2024/03/12 08:16:34;;;;;;;4.53;2.30;;;;;;;12.47;100.00;92399.75;5093187;28;20043;-74
2024/03/12 08:19:01;;;;;;;4.60;1.45;;;;;;;12.69;100.00;92403.09;5092186;28;20527;-74
2024/03/12 08:21:28;;;;;;;4.07;1.38;;;;;;;12.76;100.00;92391.81;5092203;28;21047;-74
2024/03/12 08:23:58;;;;;;;4.03;1.50;;;;;;;13.00;100.00;92409.56;5093420;28;20062;-74
2024/03/12 08:26:27;;;;;;;2.63;1.60;;;;;;;13.11;100.00;92411.22;5092011;28;20138;-73
2024/03/12 08:28:55;;;;;;;3.97;1.50;;;;;;;13.28;100.00;92412.91;5091831;28;20059;-73
2024/03/12 08:31:22;;;;;;;5.53;2.00;;;;;;;13.47;100.00;92413.34;5092464;28;20059;-73
2024/03/12 08:33:49;;;;;;;4.00;0.98;;;;;;;13.42;100.00;92414.03;5092604;28;20048;-73
2024/03/12 08:36:16;;;;;;;3.28;1.45;;;;;;;13.65;100.00;92408.81;5094504;28;20051;-73
2024/03/12 08:38:44;;;;;;;9.75;3.70;;;;;;;13.97;100.00;92402.78;5095292;28;20043;-74
2024/03/12 08:41:12;;;;;;;3.90;1.40;;;;;;;14.21;100.00;92423.84;5093047;28;20177;-73
2024/03/12 08:43:39;;;;;;;4.07;1.30;;;;;;;14.10;100.00;92394.59;5094307;28;21025;-74
2024/03/12 08:46:06;;;;;;;5.03;1.00;;;;;;;14.27;98.26;92427.22;5092845;28;20044;-73
2024/03/12 08:48:34;;;;;;;3.95;1.50;;;;;;;13.99;96.16;92414.41;5091113;28;20497;-74
2024/03/12 08:51:02;;;;;;;2.22;1.00;;;;;;;13.94;95.33;92429.91;5092809;28;20056;-74
2024/03/12 08:53:29;;;;;;;7.03;1.30;;;;;;;13.74;97.73;92438.28;5091348;28;20044;-74
2024/03/12 08:55:57;;;;;;;3.30;1.17;;;;;;;13.64;99.45;92433.84;5091707;28;20048;-74
2024/03/12 08:58:25;;;;;;;5.80;1.90;;;;;;;13.81;100.00;92435.50;5095400;28;20048;-75
2024/03/12 09:00:52;;;;;;;3.67;1.60;;;;;;;13.79;100.00;92437.56;5092508;28;20489;-74
2024/03/12 09:03:20;;;;;;;3.10;1.63;;;;;;;13.49;100.00;92432.72;5091915;28;20502;-74
2024/03/12 09:05:48;;;;;;;5.05;1.95;;;;;;;13.41;100.00;92434.91;5094299;28;20043;-75
2024/03/12 09:08:18;;;;;;;8.10;2.10;;;;;;;13.28;100.00;92431.72;5091525;28;20412;-74
2024/03/12 09:10:47;;;;;;;5.43;2.55;;;;;;;13.24;100.00;92443.53;5091869;28;20062;-74
2024/03/12 09:13:16;;;;;;;6.00;1.90;;;;;;;13.09;100.00;92449.34;5100338;28;20578;-74
2024/03/12 09:15:45;;;;;;;5.15;2.10;;;;;;;12.88;100.00;92446.59;5092660;28;20044;-74
2024/03/12 09:18:14;;;;;;;5.57;1.73;;;;;;;12.46;100.00;92437.63;5090926;28;20147;-74
2024/03/12 09:20:42;;;;;;;4.97;2.33;;;;;;;12.25;100.00;92450.25;5091510;28;20040;-74
2024/03/12 09:23:08;;;;;;;4.35;2.25;;;;;;;12.10;100.00;92456.00;5093307;28;20142;-74
2024/03/12 09:25:36;;;;;;;6.00;2.80;;;;;;;12.05;100.00;92453.34;5088811;28;20044;-74
2024/03/12 09:28:04;;;;;;;8.00;3.33;;;;;;;11.91;100.00;92458.03;5101195;28;20100;-74
2024/03/12 09:30:31;;;;;;;7.47;4.22;;;;;;;11.77;100.00;92455.75;5090339;28;20501;-74
2024/03/12 09:33:00;;;;;;;5.45;2.92;;;;;;;11.57;100.00;92455.47;5095968;28;20408;-74
2024/03/12 09:35:27;;;;;;;7.28;3.10;;;;;;;11.55;100.00;92450.56;5096800;28;20044;-74
2024/03/12 09:37:55;;;;;;;5.85;2.80;;;;;;;11.27;100.00;92452.19;5091736;28;20086;-74
2024/03/12 09:40:22;;;;;;;5.40;2.60;;;;;;;11.35;100.00;92451.78;5093863;28;20050;-74
2024/03/12 09:42:52;;;;;;;4.88;3.28;;;;;;;11.26;100.00;92454.97;5092059;28;20646;-74
2024/03/12 09:45:21;;;;;;;6.47;3.05;;;;;;;11.36;100.00;92448.19;5094130;28;20044;-75
2024/03/12 09:47:48;;;;;;;4.53;2.33;;;;;;;11.19;100.00;92439.69;5097530;28;20505;-74
2024/03/12 09:50:19;;;;;;;3.38;2.00;;;;;;;11.23;100.00;92451.88;5091205;28;20151;-73
2024/03/12 09:52:49;;;;;;;3.22;1.80;;;;;;;11.20;100.00;92447.19;5099860;28;20416;-73
2024/03/12 09:55:18;;;;;;;2.65;1.30;;;;;;;11.11;100.00;92435.72;5091159;28;20160;-73
2024/03/12 09:57:46;;;;;;;5.93;2.00;;;;;;;11.29;100.00;92450.16;5090120;28;20531;-73
2024/03/12 10:00:18;;;;;;;5.60;2.17;;;;;;;11.31;100.00;92442.22;5099494;28;20417;-73
2024/03/12 10:02:47;;;;;;;6.55;2.70;;;;;;;11.39;100.00;92443.63;5093635;28;20043;-73
2024/03/12 10:05:16;;;;;;;3.53;1.70;;;;;;;11.50;100.00;92442.75;5090788;28;20641;-73
2024/03/12 10:08:12;;;;;;;3.90;1.73;;;;;;;11.58;100.00;92441.59;5090332;28;20048;-73
2024/03/12 10:10:43;;;;;;;10.57;5.05;;;;;;;11.63;100.00;92434.72;5094729;28;20162;-74
2024/03/12 10:13:15;;;;;;;8.77;2.42;;;;;;;11.51;100.00;92431.47;5090323;28;20044;-73
2024/03/12 10:15:53;;;;;;;3.90;1.60;;;;;;;11.66;100.00;92440.44;5089735;28;20044;-73
2024/03/12 10:18:20;;;;;;;3.22;1.30;;;;;;;11.45;100.00;92424.69;5094115;28;20058;-74
2024/03/12 10:20:50;;;;;;;4.68;2.40;;;;;;;11.56;100.00;92431.53;5092416;28;20485;-73
2024/03/12 10:23:20;;;;;;;2.72;1.83;;;;;;;11.49;100.00;92425.78;5089567;28;20067;-73
2024/03/12 10:25:49;;;;;;;4.10;2.13;;;;;;;11.41;100.00;92408.16;5092392;28;20138;-73
2024/03/12 10:28:18;;;;;;;6.15;1.85;;;;;;;11.56;100.00;92426.41;5086684;28;20048;-74
2024/03/12 10:30:46;;;;;;;3.28;1.80;;;;;;;11.56;100.00;92423.03;5073724;28;20044;-73
2024/03/12 10:33:16;;;;;;;4.60;2.38;;;;;;;11.55;100.00;92421.47;5088999;28;20052;-73
2024/03/12 10:35:45;;;;;;;3.80;1.80;;;;;;;11.69;100.00;92402.16;5089284;28;20040;-73
2024/03/12 10:38:26;;;;;;;3.47;1.65;;;;;;;11.81;100.00;92411.56;5092788;28;20048;-73
2024/03/12 10:40:55;;;;;;;7.35;2.30;;;;;;;11.90;100.00;92400.63;5089286;28;20051;-73
2024/03/12 10:43:24;;;;;;;5.70;1.80;;;;;;;12.12;100.00;92399.91;5091463;28;20410;-73
2024/03/12 10:45:51;;;;;;;5.85;2.75;;;;;;;12.35;100.00;92397.34;5089652;28;20044;-73
2024/03/12 10:48:19;;;;;;;3.53;1.50;;;;;;;12.58;100.00;92398.84;5093259;28;20131;-73
2024/03/12 10:50:48;;;;;;;3.97;2.78;;;;;;;12.90;100.00;92394.78;5090431;28;20051;-73
2024/03/12 10:53:18;;;;;;;4.80;1.60;;;;;;;13.16;97.96;92387.28;5089547;28;20048;-74
2024/03/12 10:55:45;;;;;;;5.10;1.30;;;;;;;13.37;96.27;92367.56;5089061;28;20048;-74
2024/03/12 10:58:15;;;;;;;3.72;1.10;;;;;;;13.81;89.90;92394.19;5089596;28;20087;-73
2024/03/12 11:00:44;;;;;;;1.20;0.40;;;;;;;14.09;90.08;92369.81;5089625;28;20047;-74
2024/03/12 11:03:13;;;;;;;2.88;0.60;;;;;;;14.31;87.05;92384.38;5089191;28;20345;-74
2024/03/12 11:05:42;;;;;;;1.33;0.65;;;;;;;14.46;86.01;92375.09;5091927;28;20051;-74
2024/03/12 11:08:10;;;;;;;2.05;0.65;;;;;;;14.46;85.08;92372.53;5088802;28;20726;-74
2024/03/12 11:10:38;;;;;;;2.88;0.82;;;;;;;14.62;85.17;92373.34;5089594;28;20535;-73
2024/03/12 11:13:07;;;;;;;3.20;1.20;;;;;;;14.88;84.85;92370.81;5087877;28;20117;-74
2024/03/12 11:15:35;;;;;;;8.90;1.80;;;;;;;15.07;83.09;92361.53;5088335;28;20048;-74
2024/03/12 11:18:05;;;;;;;13.80;10.50;;;;;;;15.10;82.62;92342.16;5086735;28;20054;-74
2024/03/12 11:20:33;;;;;;;7.20;3.70;;;;;;;15.46;80.88;92349.88;5088918;28;20052;-74
2024/03/12 11:23:02;;;;;;;2.50;1.00;;;;;;;15.56;79.75;92354.25;5089804;28;20059;-74
2024/03/12 11:25:33;;;;;;;1.67;0.70;;;;;;;15.56;78.71;92343.91;5088180;28;20055;-74
2024/03/12 11:28:22;;;;;;;3.95;1.20;;;;;;;15.69;76.76;92347.00;5093631;28;20104;-73
2024/03/12 11:31:00;;;;;;;2.42;0.98;;;;;;;15.27;78.24;92347.03;5093526;28;20073;-73
2024/03/12 11:33:46;;;;;;;3.28;0.90;;;;;;;15.30;77.92;92340.56;5086782;28;20047;-74
2024/03/12 11:36:21;;;;;;;1.70;0.68;;;;;;;15.27;77.63;92330.75;5088830;28;20445;-74
2024/03/12 11:38:49;;;;;;;2.85;1.00;;;;;;;15.27;76.10;92331.53;5090397;28;20044;-74